sensor_id;sensor_type;location;lat;lon;timestamp;P1;durP1;ratioP1;P2;durP2;ratioP2
26516;SDS011;14190;51.342;6.338;2023-02-28T00:01:16;11.38;;;6.67;;
26516;SDS011;14190;51.342;6.338;2023-02-28T00:03:44;12.40;;;7.25;;
26516;SDS011;14190;51.342;6.338;2023-02-28T00:06:11;11.75;;;6.92;;
26516;SDS011;14190;51.342;6.338;2023-02-28T00:08:39;11.88;;;6.33;;
26516;SDS011;14190;51.342;6.338;2023-02-28T00:11:08;12.53;;;7.75;;
26516;SDS011;14190;51.342;6.338;2023-02-28T00:13:36;15.72;;;7.78;;
26516;SDS011;14190;51.342;6.338;2023-02-28T00:16:04;17.77;;;7.72;;
26516;SDS011;14190;51.342;6.338;2023-02-28T00:18:32;12.30;;;6.72;;
26516;SDS011;14190;51.342;6.338;2023-02-28T00:21:00;12.35;;;7.22;;
26516;SDS011;14190;51.342;6.338;2023-02-28T00:23:27;12.55;;;7.10;;
26516;SDS011;14190;51.342;6.338;2023-02-28T00:25:55;14.95;;;7.33;;
26516;SDS011;14190;51.342;6.338;2023-02-28T00:28:23;16.20;;;7.50;;
26516;SDS011;14190;51.342;6.338;2023-02-28T00:30:50;14.70;;;7.65;;
26516;SDS011;14190;51.342;6.338;2023-02-28T00:33:18;14.87;;;6.90;;
26516;SDS011;14190;51.342;6.338;2023-02-28T00:35:45;16.00;;;7.58;;
26516;SDS011;14190;51.342;6.338;2023-02-28T00:38:13;17.75;;;7.78;;
26516;SDS011;14190;51.342;6.338;2023-02-28T00:40:41;11.43;;;7.17;;
26516;SDS011;14190;51.342;6.338;2023-02-28T00:43:10;13.25;;;7.62;;
26516;SDS011;14190;51.342;6.338;2023-02-28T00:45:37;13.35;;;6.95;;
26516;SDS011;14190;51.342;6.338;2023-02-28T00:48:05;10.65;;;6.55;;
26516;SDS011;14190;51.342;6.338;2023-02-28T00:50:32;22.95;;;8.38;;
26516;SDS011;14190;51.342;6.338;2023-02-28T00:53:00;14.07;;;7.25;;
26516;SDS011;14190;51.342;6.338;2023-02-28T00:55:27;14.05;;;7.70;;
26516;SDS011;14190;51.342;6.338;2023-02-28T00:57:54;18.90;;;7.97;;
26516;SDS011;14190;51.342;6.338;2023-02-28T01:00:22;14.33;;;7.33;;
26516;SDS011;14190;51.342;6.338;2023-02-28T01:02:49;14.80;;;7.58;;
26516;SDS011;14190;51.342;6.338;2023-02-28T01:05:17;18.52;;;8.05;;
26516;SDS011;14190;51.342;6.338;2023-02-28T01:07:44;12.63;;;7.20;;
26516;SDS011;14190;51.342;6.338;2023-02-28T01:10:11;15.85;;;7.87;;
26516;SDS011;14190;51.342;6.338;2023-02-28T01:12:40;11.75;;;7.10;;
26516;SDS011;14190;51.342;6.338;2023-02-28T01:15:09;11.28;;;7.00;;
26516;SDS011;14190;51.342;6.338;2023-02-28T01:17:37;14.87;;;7.15;;
26516;SDS011;14190;51.342;6.338;2023-02-28T01:20:05;12.70;;;6.75;;
26516;SDS011;14190;51.342;6.338;2023-02-28T01:22:34;13.53;;;6.87;;
26516;SDS011;14190;51.342;6.338;2023-02-28T01:25:01;13.13;;;6.53;;
26516;SDS011;14190;51.342;6.338;2023-02-28T01:27:31;11.87;;;7.10;;
26516;SDS011;14190;51.342;6.338;2023-02-28T01:29:58;13.83;;;7.85;;
26516;SDS011;14190;51.342;6.338;2023-02-28T01:32:25;13.80;;;7.03;;
26516;SDS011;14190;51.342;6.338;2023-02-28T01:34:53;12.40;;;6.62;;
26516;SDS011;14190;51.342;6.338;2023-02-28T01:37:22;19.03;;;7.53;;
26516;SDS011;14190;51.342;6.338;2023-02-28T01:39:50;20.92;;;7.20;;
26516;SDS011;14190;51.342;6.338;2023-02-28T01:42:19;16.82;;;7.00;;
26516;SDS011;14190;51.342;6.338;2023-02-28T01:45:00;10.23;;;6.28;;
26516;SDS011;14190;51.342;6.338;2023-02-28T01:47:39;9.63;;;6.25;;
26516;SDS011;14190;51.342;6.338;2023-02-28T01:50:04;14.53;;;7.45;;
26516;SDS011;14190;51.342;6.338;2023-02-28T01:52:31;11.53;;;6.17;;
26516;SDS011;14190;51.342;6.338;2023-02-28T01:54:59;9.85;;;7.03;;
26516;SDS011;14190;51.342;6.338;2023-02-28T01:57:30;11.12;;;6.80;;
26516;SDS011;14190;51.342;6.338;2023-02-28T02:00:00;16.82;;;7.12;;
26516;SDS011;14190;51.342;6.338;2023-02-28T02:02:31;13.32;;;6.75;;
26516;SDS011;14190;51.342;6.338;2023-02-28T02:05:08;18.45;;;7.22;;
26516;SDS011;14190;51.342;6.338;2023-02-28T02:07:36;14.23;;;6.75;;
26516;SDS011;14190;51.342;6.338;2023-02-28T02:10:18;16.35;;;6.70;;
26516;SDS011;14190;51.342;6.338;2023-02-28T02:15:26;10.65;;;7.05;;
26516;SDS011;14190;51.342;6.338;2023-02-28T02:17:54;12.23;;;7.45;;
26516;SDS011;14190;51.342;6.338;2023-02-28T02:20:29;11.63;;;6.72;;
26516;SDS011;14190;51.342;6.338;2023-02-28T02:25:39;13.88;;;7.25;;
26516;SDS011;14190;51.342;6.338;2023-02-28T02:28:13;14.03;;;7.15;;
26516;SDS011;14190;51.342;6.338;2023-02-28T02:30:43;10.05;;;6.53;;
26516;SDS011;14190;51.342;6.338;2023-02-28T02:35:40;13.40;;;6.75;;
26516;SDS011;14190;51.342;6.338;2023-02-28T02:38:31;13.35;;;5.95;;
26516;SDS011;14190;51.342;6.338;2023-02-28T02:43:25;12.65;;;6.67;;
26516;SDS011;14190;51.342;6.338;2023-02-28T02:45:56;14.07;;;7.28;;
26516;SDS011;14190;51.342;6.338;2023-02-28T02:48:26;12.33;;;6.03;;
26516;SDS011;14190;51.342;6.338;2023-02-28T02:50:56;17.57;;;7.10;;
26516;SDS011;14190;51.342;6.338;2023-02-28T02:53:30;16.77;;;8.10;;
26516;SDS011;14190;51.342;6.338;2023-02-28T02:55:53;12.58;;;6.60;;
26516;SDS011;14190;51.342;6.338;2023-02-28T02:58:24;16.12;;;7.17;;
26516;SDS011;14190;51.342;6.338;2023-02-28T03:00:57;8.40;;;5.80;;
26516;SDS011;14190;51.342;6.338;2023-02-28T03:03:21;12.00;;;6.87;;
26516;SDS011;14190;51.342;6.338;2023-02-28T03:05:51;18.52;;;6.83;;
26516;SDS011;14190;51.342;6.338;2023-02-28T03:08:18;17.07;;;7.28;;
26516;SDS011;14190;51.342;6.338;2023-02-28T03:10:48;11.20;;;6.20;;
26516;SDS011;14190;51.342;6.338;2023-02-28T03:18:15;16.83;;;7.10;;
26516;SDS011;14190;51.342;6.338;2023-02-28T03:20:45;9.83;;;5.67;;
26516;SDS011;14190;51.342;6.338;2023-02-28T03:23:16;11.15;;;6.78;;
26516;SDS011;14190;51.342;6.338;2023-02-28T03:26:01;13.18;;;6.35;;
26516;SDS011;14190;51.342;6.338;2023-02-28T03:31:39;14.10;;;6.30;;
26516;SDS011;14190;51.342;6.338;2023-02-28T03:33:28;11.63;;;5.72;;
26516;SDS011;14190;51.342;6.338;2023-02-28T03:35:52;15.15;;;6.17;;
26516;SDS011;14190;51.342;6.338;2023-02-28T03:38:31;15.60;;;7.10;;
26516;SDS011;14190;51.342;6.338;2023-02-28T03:41:18;18.62;;;6.30;;
26516;SDS011;14190;51.342;6.338;2023-02-28T03:43:31;14.65;;;7.20;;
26516;SDS011;14190;51.342;6.338;2023-02-28T03:45:59;13.30;;;7.05;;
26516;SDS011;14190;51.342;6.338;2023-02-28T03:48:34;15.48;;;6.55;;
26516;SDS011;14190;51.342;6.338;2023-02-28T03:50:57;15.57;;;6.43;;
26516;SDS011;14190;51.342;6.338;2023-02-28T03:53:30;16.27;;;7.08;;
26516;SDS011;14190;51.342;6.338;2023-02-28T03:55:59;12.15;;;7.15;;
26516;SDS011;14190;51.342;6.338;2023-02-28T04:01:01;13.75;;;6.53;;
26516;SDS011;14190;51.342;6.338;2023-02-28T04:03:29;13.98;;;6.65;;
26516;SDS011;14190;51.342;6.338;2023-02-28T04:05:57;17.50;;;8.23;;
26516;SDS011;14190;51.342;6.338;2023-02-28T04:08:25;10.72;;;6.25;;
26516;SDS011;14190;51.342;6.338;2023-02-28T04:11:03;11.70;;;6.75;;
26516;SDS011;14190;51.342;6.338;2023-02-28T04:13:30;14.13;;;6.20;;
26516;SDS011;14190;51.342;6.338;2023-02-28T04:15:58;15.93;;;6.35;;
26516;SDS011;14190;51.342;6.338;2023-02-28T04:18:25;12.40;;;6.37;;
26516;SDS011;14190;51.342;6.338;2023-02-28T04:20:52;13.53;;;6.40;;
26516;SDS011;14190;51.342;6.338;2023-02-28T04:23:20;11.05;;;6.53;;
26516;SDS011;14190;51.342;6.338;2023-02-28T04:25:47;14.60;;;6.17;;
26516;SDS011;14190;51.342;6.338;2023-02-28T04:28:16;9.63;;;5.97;;
26516;SDS011;14190;51.342;6.338;2023-02-28T04:30:44;12.82;;;5.95;;
26516;SDS011;14190;51.342;6.338;2023-02-28T04:33:11;11.78;;;5.85;;
26516;SDS011;14190;51.342;6.338;2023-02-28T04:35:38;12.03;;;6.25;;
26516;SDS011;14190;51.342;6.338;2023-02-28T04:38:06;10.95;;;5.67;;
26516;SDS011;14190;51.342;6.338;2023-02-28T04:40:33;12.47;;;6.40;;
26516;SDS011;14190;51.342;6.338;2023-02-28T04:43:00;15.70;;;6.53;;
26516;SDS011;14190;51.342;6.338;2023-02-28T04:45:28;13.00;;;6.10;;
26516;SDS011;14190;51.342;6.338;2023-02-28T04:47:57;11.65;;;6.58;;
26516;SDS011;14190;51.342;6.338;2023-02-28T04:50:24;8.90;;;5.15;;
26516;SDS011;14190;51.342;6.338;2023-02-28T04:52:52;11.80;;;5.70;;
26516;SDS011;14190;51.342;6.338;2023-02-28T04:55:21;9.58;;;4.92;;
26516;SDS011;14190;51.342;6.338;2023-02-28T04:57:48;12.28;;;5.58;;
26516;SDS011;14190;51.342;6.338;2023-02-28T05:00:15;14.33;;;5.50;;
26516;SDS011;14190;51.342;6.338;2023-02-28T05:02:43;12.28;;;5.83;;
26516;SDS011;14190;51.342;6.338;2023-02-28T05:05:10;9.40;;;5.80;;
26516;SDS011;14190;51.342;6.338;2023-02-28T05:07:39;11.12;;;5.45;;
26516;SDS011;14190;51.342;6.338;2023-02-28T05:10:07;16.17;;;6.33;;
26516;SDS011;14190;51.342;6.338;2023-02-28T05:12:34;11.95;;;5.62;;
26516;SDS011;14190;51.342;6.338;2023-02-28T05:15:02;13.53;;;6.22;;
26516;SDS011;14190;51.342;6.338;2023-02-28T05:17:31;8.83;;;6.22;;
26516;SDS011;14190;51.342;6.338;2023-02-28T05:19:58;9.73;;;5.60;;
26516;SDS011;14190;51.342;6.338;2023-02-28T05:22:25;12.05;;;6.20;;
26516;SDS011;14190;51.342;6.338;2023-02-28T05:24:53;12.60;;;5.65;;
26516;SDS011;14190;51.342;6.338;2023-02-28T05:27:20;14.13;;;6.08;;
26516;SDS011;14190;51.342;6.338;2023-02-28T05:29:48;13.45;;;6.17;;
26516;SDS011;14190;51.342;6.338;2023-02-28T05:32:15;12.20;;;5.40;;
26516;SDS011;14190;51.342;6.338;2023-02-28T05:34:42;11.25;;;6.37;;
26516;SDS011;14190;51.342;6.338;2023-02-28T05:37:15;13.10;;;6.30;;
26516;SDS011;14190;51.342;6.338;2023-02-28T05:39:39;10.88;;;5.83;;
26516;SDS011;14190;51.342;6.338;2023-02-28T05:42:07;12.13;;;6.08;;
26516;SDS011;14190;51.342;6.338;2023-02-28T05:44:35;9.13;;;5.45;;
26516;SDS011;14190;51.342;6.338;2023-02-28T05:47:03;10.58;;;5.90;;
26516;SDS011;14190;51.342;6.338;2023-02-28T05:49:30;19.42;;;6.25;;
26516;SDS011;14190;51.342;6.338;2023-02-28T05:51:58;12.73;;;6.12;;
26516;SDS011;14190;51.342;6.338;2023-02-28T05:54:25;22.00;;;7.60;;
26516;SDS011;14190;51.342;6.338;2023-02-28T05:56:52;9.83;;;5.15;;
26516;SDS011;14190;51.342;6.338;2023-02-28T05:59:20;12.90;;;5.55;;
26516;SDS011;14190;51.342;6.338;2023-02-28T06:01:47;11.00;;;5.80;;
26516;SDS011;14190;51.342;6.338;2023-02-28T06:04:15;12.65;;;5.22;;
26516;SDS011;14190;51.342;6.338;2023-02-28T06:09:11;14.93;;;5.37;;
26516;SDS011;14190;51.342;6.338;2023-02-28T06:11:39;9.85;;;6.12;;
26516;SDS011;14190;51.342;6.338;2023-02-28T06:14:09;12.37;;;5.72;;
26516;SDS011;14190;51.342;6.338;2023-02-28T06:16:36;13.10;;;5.90;;
26516;SDS011;14190;51.342;6.338;2023-02-28T06:19:04;9.23;;;5.03;;
26516;SDS011;14190;51.342;6.338;2023-02-28T06:21:31;13.83;;;5.42;;
26516;SDS011;14190;51.342;6.338;2023-02-28T06:23:59;11.50;;;5.85;;
26516;SDS011;14190;51.342;6.338;2023-02-28T06:26:26;8.28;;;5.08;;
26516;SDS011;14190;51.342;6.338;2023-02-28T06:28:54;7.90;;;5.45;;
26516;SDS011;14190;51.342;6.338;2023-02-28T06:31:21;11.65;;;5.50;;
26516;SDS011;14190;51.342;6.338;2023-02-28T06:33:51;14.23;;;6.20;;
26516;SDS011;14190;51.342;6.338;2023-02-28T06:36:18;12.10;;;5.15;;
26516;SDS011;14190;51.342;6.338;2023-02-28T06:38:46;11.05;;;6.17;;
26516;SDS011;14190;51.342;6.338;2023-02-28T06:41:15;11.28;;;5.90;;
26516;SDS011;14190;51.342;6.338;2023-02-28T06:43:43;9.78;;;5.53;;
26516;SDS011;14190;51.342;6.338;2023-02-28T06:46:11;8.15;;;4.97;;
26516;SDS011;14190;51.342;6.338;2023-02-28T06:48:40;13.47;;;6.20;;
26516;SDS011;14190;51.342;6.338;2023-02-28T06:51:15;11.45;;;5.55;;
26516;SDS011;14190;51.342;6.338;2023-02-28T06:53:42;9.65;;;5.65;;
26516;SDS011;14190;51.342;6.338;2023-02-28T06:56:11;14.47;;;5.62;;
26516;SDS011;14190;51.342;6.338;2023-02-28T06:58:39;9.83;;;5.30;;
26516;SDS011;14190;51.342;6.338;2023-02-28T07:01:07;11.80;;;5.45;;
26516;SDS011;14190;51.342;6.338;2023-02-28T07:03:35;13.00;;;4.85;;
26516;SDS011;14190;51.342;6.338;2023-02-28T07:06:04;11.20;;;4.87;;
26516;SDS011;14190;51.342;6.338;2023-02-28T07:08:31;20.25;;;6.28;;
26516;SDS011;14190;51.342;6.338;2023-02-28T07:10:59;10.88;;;5.72;;
26516;SDS011;14190;51.342;6.338;2023-02-28T07:13:27;10.63;;;5.60;;
26516;SDS011;14190;51.342;6.338;2023-02-28T07:18:23;12.10;;;5.53;;
26516;SDS011;14190;51.342;6.338;2023-02-28T07:20:51;13.95;;;5.17;;
26516;SDS011;14190;51.342;6.338;2023-02-28T07:23:19;12.33;;;5.42;;
26516;SDS011;14190;51.342;6.338;2023-02-28T07:25:47;10.10;;;5.78;;
26516;SDS011;14190;51.342;6.338;2023-02-28T07:28:14;9.10;;;5.20;;
26516;SDS011;14190;51.342;6.338;2023-02-28T07:30:42;13.50;;;5.40;;
26516;SDS011;14190;51.342;6.338;2023-02-28T07:33:09;11.18;;;4.97;;
26516;SDS011;14190;51.342;6.338;2023-02-28T07:35:37;11.10;;;5.42;;
26516;SDS011;14190;51.342;6.338;2023-02-28T07:38:04;14.80;;;4.83;;
26516;SDS011;14190;51.342;6.338;2023-02-28T07:40:34;9.10;;;5.03;;
26516;SDS011;14190;51.342;6.338;2023-02-28T07:43:02;10.65;;;4.90;;
26516;SDS011;14190;51.342;6.338;2023-02-28T07:45:29;9.53;;;4.37;;
26516;SDS011;14190;51.342;6.338;2023-02-28T07:47:58;10.85;;;4.90;;
26516;SDS011;14190;51.342;6.338;2023-02-28T07:50:26;14.13;;;5.22;;
26516;SDS011;14190;51.342;6.338;2023-02-28T07:52:56;10.10;;;5.10;;
26516;SDS011;14190;51.342;6.338;2023-02-28T07:55:23;13.93;;;5.85;;
26516;SDS011;14190;51.342;6.338;2023-02-28T07:57:51;8.98;;;4.60;;
26516;SDS011;14190;51.342;6.338;2023-02-28T08:00:18;9.85;;;5.05;;
26516;SDS011;14190;51.342;6.338;2023-02-28T08:02:46;9.98;;;5.45;;
26516;SDS011;14190;51.342;6.338;2023-02-28T08:05:13;12.13;;;5.58;;
26516;SDS011;14190;51.342;6.338;2023-02-28T08:07:40;14.38;;;5.28;;
26516;SDS011;14190;51.342;6.338;2023-02-28T08:10:08;10.00;;;4.53;;
26516;SDS011;14190;51.342;6.338;2023-02-28T08:12:36;16.73;;;5.15;;
26516;SDS011;14190;51.342;6.338;2023-02-28T08:15:03;10.82;;;4.85;;
26516;SDS011;14190;51.342;6.338;2023-02-28T08:17:31;7.90;;;4.30;;
26516;SDS011;14190;51.342;6.338;2023-02-28T08:19:58;10.30;;;4.78;;
26516;SDS011;14190;51.342;6.338;2023-02-28T08:22:25;9.48;;;4.80;;
26516;SDS011;14190;51.342;6.338;2023-02-28T08:24:53;8.80;;;4.85;;
26516;SDS011;14190;51.342;6.338;2023-02-28T08:27:20;15.40;;;4.85;;
26516;SDS011;14190;51.342;6.338;2023-02-28T08:29:47;8.08;;;4.03;;
26516;SDS011;14190;51.342;6.338;2023-02-28T08:32:15;11.28;;;4.70;;
26516;SDS011;14190;51.342;6.338;2023-02-28T08:34:42;9.10;;;3.87;;
26516;SDS011;14190;51.342;6.338;2023-02-28T08:37:10;7.47;;;3.77;;
26516;SDS011;14190;51.342;6.338;2023-02-28T08:39:37;7.67;;;3.87;;
26516;SDS011;14190;51.342;6.338;2023-02-28T08:42:05;6.50;;;4.08;;
26516;SDS011;14190;51.342;6.338;2023-02-28T08:44:32;9.78;;;4.00;;
26516;SDS011;14190;51.342;6.338;2023-02-28T08:47:00;7.37;;;3.95;;
26516;SDS011;14190;51.342;6.338;2023-02-28T08:49:27;6.75;;;4.05;;
26516;SDS011;14190;51.342;6.338;2023-02-28T08:51:55;6.83;;;3.90;;
26516;SDS011;14190;51.342;6.338;2023-02-28T08:54:23;5.75;;;3.55;;
26516;SDS011;14190;51.342;6.338;2023-02-28T08:56:51;9.28;;;4.12;;
26516;SDS011;14190;51.342;6.338;2023-02-28T08:59:18;7.45;;;3.80;;
26516;SDS011;14190;51.342;6.338;2023-02-28T09:01:45;5.97;;;3.33;;
26516;SDS011;14190;51.342;6.338;2023-02-28T09:04:13;8.60;;;4.28;;
26516;SDS011;14190;51.342;6.338;2023-02-28T09:06:40;6.42;;;4.45;;
26516;SDS011;14190;51.342;6.338;2023-02-28T09:09:08;8.73;;;4.10;;
26516;SDS011;14190;51.342;6.338;2023-02-28T09:11:35;6.20;;;3.87;;
26516;SDS011;14190;51.342;6.338;2023-02-28T09:14:03;10.98;;;3.55;;
26516;SDS011;14190;51.342;6.338;2023-02-28T09:16:31;6.47;;;3.70;;
26516;SDS011;14190;51.342;6.338;2023-02-28T09:18:59;6.10;;;3.60;;
26516;SDS011;14190;51.342;6.338;2023-02-28T09:21:26;14.45;;;3.80;;
26516;SDS011;14190;51.342;6.338;2023-02-28T09:23:54;10.50;;;5.40;;
26516;SDS011;14190;51.342;6.338;2023-02-28T09:26:27;7.62;;;4.17;;
26516;SDS011;14190;51.342;6.338;2023-02-28T09:28:51;10.32;;;3.85;;
26516;SDS011;14190;51.342;6.338;2023-02-28T09:31:19;9.60;;;3.85;;
26516;SDS011;14190;51.342;6.338;2023-02-28T09:33:48;4.85;;;2.85;;
26516;SDS011;14190;51.342;6.338;2023-02-28T09:36:15;11.30;;;5.58;;
26516;SDS011;14190;51.342;6.338;2023-02-28T09:38:43;4.90;;;3.08;;
26516;SDS011;14190;51.342;6.338;2023-02-28T09:41:15;6.28;;;2.98;;
26516;SDS011;14190;51.342;6.338;2023-02-28T09:43:44;7.25;;;3.25;;
26516;SDS011;14190;51.342;6.338;2023-02-28T09:48:58;5.15;;;3.17;;
26516;SDS011;14190;51.342;6.338;2023-02-28T09:51:30;7.15;;;4.40;;
26516;SDS011;14190;51.342;6.338;2023-02-28T09:53:55;6.80;;;3.02;;
26516;SDS011;14190;51.342;6.338;2023-02-28T09:56:37;10.50;;;3.60;;
26516;SDS011;14190;51.342;6.338;2023-02-28T09:59:02;8.48;;;3.40;;
26516;SDS011;14190;51.342;6.338;2023-02-28T10:01:37;7.70;;;2.62;;
26516;SDS011;14190;51.342;6.338;2023-02-28T10:04:12;6.22;;;2.80;;
26516;SDS011;14190;51.342;6.338;2023-02-28T10:06:44;4.90;;;2.47;;
26516;SDS011;14190;51.342;6.338;2023-02-28T10:09:17;2.50;;;1.87;;
26516;SDS011;14190;51.342;6.338;2023-02-28T10:11:44;3.17;;;2.20;;
26516;SDS011;14190;51.342;6.338;2023-02-28T10:14:14;3.42;;;2.33;;
26516;SDS011;14190;51.342;6.338;2023-02-28T10:17:02;4.70;;;2.62;;
26516;SDS011;14190;51.342;6.338;2023-02-28T10:19:27;4.08;;;2.20;;
26516;SDS011;14190;51.342;6.338;2023-02-28T10:21:52;2.75;;;2.33;;
26516;SDS011;14190;51.342;6.338;2023-02-28T10:26:47;2.65;;;2.15;;
26516;SDS011;14190;51.342;6.338;2023-02-28T10:29:15;3.72;;;2.25;;
26516;SDS011;14190;51.342;6.338;2023-02-28T10:31:42;5.33;;;3.10;;
26516;SDS011;14190;51.342;6.338;2023-02-28T10:34:11;27.75;;;6.53;;
26516;SDS011;14190;51.342;6.338;2023-02-28T10:36:39;3.30;;;2.10;;
26516;SDS011;14190;51.342;6.338;2023-02-28T10:41:55;3.47;;;2.90;;
26516;SDS011;14190;51.342;6.338;2023-02-28T10:44:22;4.78;;;3.00;;
26516;SDS011;14190;51.342;6.338;2023-02-28T10:46:50;8.63;;;3.85;;
26516;SDS011;14190;51.342;6.338;2023-02-28T10:49:22;9.48;;;3.87;;
26516;SDS011;14190;51.342;6.338;2023-02-28T10:51:57;8.28;;;4.35;;
26516;SDS011;14190;51.342;6.338;2023-02-28T10:57:05;2.73;;;2.00;;
26516;SDS011;14190;51.342;6.338;2023-02-28T10:59:30;3.55;;;2.50;;
26516;SDS011;14190;51.342;6.338;2023-02-28T11:01:57;4.87;;;3.62;;
26516;SDS011;14190;51.342;6.338;2023-02-28T11:07:03;4.90;;;3.30;;
26516;SDS011;14190;51.342;6.338;2023-02-28T11:09:35;8.20;;;3.33;;
26516;SDS011;14190;51.342;6.338;2023-02-28T11:12:03;11.35;;;4.03;;
26516;SDS011;14190;51.342;6.338;2023-02-28T11:14:33;5.87;;;2.20;;
26516;SDS011;14190;51.342;6.338;2023-02-28T11:19:46;7.97;;;3.05;;
26516;SDS011;14190;51.342;6.338;2023-02-28T11:22:21;4.67;;;2.33;;
26516;SDS011;14190;51.342;6.338;2023-02-28T11:24:51;8.50;;;2.75;;
26516;SDS011;14190;51.342;6.338;2023-02-28T11:27:42;6.97;;;2.62;;
26516;SDS011;14190;51.342;6.338;2023-02-28T11:29:48;9.83;;;4.15;;
26516;SDS011;14190;51.342;6.338;2023-02-28T11:32:19;2.55;;;2.25;;
26516;SDS011;14190;51.342;6.338;2023-02-28T11:34:55;4.55;;;2.83;;
26516;SDS011;14190;51.342;6.338;2023-02-28T11:37:16;4.62;;;2.47;;
26516;SDS011;14190;51.342;6.338;2023-02-28T11:39:45;6.20;;;3.15;;
26516;SDS011;14190;51.342;6.338;2023-02-28T11:44:51;27.82;;;3.95;;
26516;SDS011;14190;51.342;6.338;2023-02-28T11:48:04;6.50;;;3.80;;
26516;SDS011;14190;51.342;6.338;2023-02-28T11:49:50;5.92;;;3.00;;
26516;SDS011;14190;51.342;6.338;2023-02-28T12:00:01;4.67;;;2.77;;
26516;SDS011;14190;51.342;6.338;2023-02-28T12:10:29;3.00;;;2.25;;
26516;SDS011;14190;51.342;6.338;2023-02-28T12:13:16;4.20;;;2.50;;
26516;SDS011;14190;51.342;6.338;2023-02-28T12:16:07;4.67;;;3.27;;
26516;SDS011;14190;51.342;6.338;2023-02-28T12:18:42;6.53;;;2.92;;
26516;SDS011;14190;51.342;6.338;2023-02-28T12:21:11;6.60;;;2.75;;
26516;SDS011;14190;51.342;6.338;2023-02-28T12:28:46;3.15;;;2.20;;
26516;SDS011;14190;51.342;6.338;2023-02-28T12:31:11;3.47;;;2.62;;
26516;SDS011;14190;51.342;6.338;2023-02-28T12:33:40;2.67;;;2.30;;
26516;SDS011;14190;51.342;6.338;2023-02-28T12:36:13;5.05;;;2.77;;
26516;SDS011;14190;51.342;6.338;2023-02-28T12:38:40;10.32;;;3.98;;
26516;SDS011;14190;51.342;6.338;2023-02-28T12:41:17;5.37;;;2.42;;
26516;SDS011;14190;51.342;6.338;2023-02-28T12:43:44;4.22;;;2.58;;
26516;SDS011;14190;51.342;6.338;2023-02-28T12:46:19;12.60;;;3.70;;
26516;SDS011;14190;51.342;6.338;2023-02-28T12:48:48;6.03;;;2.72;;
26516;SDS011;14190;51.342;6.338;2023-02-28T12:51:15;3.52;;;2.87;;
26516;SDS011;14190;51.342;6.338;2023-02-28T12:53:52;3.75;;;2.42;;
26516;SDS011;14190;51.342;6.338;2023-02-28T12:56:17;5.28;;;2.47;;
26516;SDS011;14190;51.342;6.338;2023-02-28T12:58:48;3.98;;;2.87;;
26516;SDS011;14190;51.342;6.338;2023-02-28T13:04:03;3.72;;;2.50;;
26516;SDS011;14190;51.342;6.338;2023-02-28T13:09:08;4.55;;;2.92;;
26516;SDS011;14190;51.342;6.338;2023-02-28T13:11:38;3.67;;;3.02;;
26516;SDS011;14190;51.342;6.338;2023-02-28T13:14:03;6.62;;;3.02;;
26516;SDS011;14190;51.342;6.338;2023-02-28T13:16:51;7.37;;;3.62;;
26516;SDS011;14190;51.342;6.338;2023-02-28T13:19:18;10.03;;;3.37;;
26516;SDS011;14190;51.342;6.338;2023-02-28T13:21:47;9.25;;;3.67;;
26516;SDS011;14190;51.342;6.338;2023-02-28T13:29:35;5.45;;;2.98;;
26516;SDS011;14190;51.342;6.338;2023-02-28T13:34:32;6.70;;;2.80;;
26516;SDS011;14190;51.342;6.338;2023-02-28T13:39:50;3.65;;;2.72;;
26516;SDS011;14190;51.342;6.338;2023-02-28T13:42:36;5.03;;;3.02;;
26516;SDS011;14190;51.342;6.338;2023-02-28T13:47:35;8.03;;;3.20;;
26516;SDS011;14190;51.342;6.338;2023-02-28T14:06:28;5.10;;;3.22;;
26516;SDS011;14190;51.342;6.338;2023-02-28T14:11:36;5.05;;;2.90;;
26516;SDS011;14190;51.342;6.338;2023-02-28T14:14:04;4.22;;;2.58;;
26516;SDS011;14190;51.342;6.338;2023-02-28T14:16:39;4.10;;;3.47;;
26516;SDS011;14190;51.342;6.338;2023-02-28T14:19:12;4.87;;;3.02;;
26516;SDS011;14190;51.342;6.338;2023-02-28T14:21:38;3.47;;;3.12;;
26516;SDS011;14190;51.342;6.338;2023-02-28T14:32:13;6.70;;;3.58;;
26516;SDS011;14190;51.342;6.338;2023-02-28T14:37:09;7.17;;;3.52;;
26516;SDS011;14190;51.342;6.338;2023-02-28T14:39:39;4.95;;;3.58;;
26516;SDS011;14190;51.342;6.338;2023-02-28T14:42:24;7.03;;;3.70;;
26516;SDS011;14190;51.342;6.338;2023-02-28T14:44:35;4.80;;;3.55;;
26516;SDS011;14190;51.342;6.338;2023-02-28T14:47:03;5.92;;;3.98;;
26516;SDS011;14190;51.342;6.338;2023-02-28T14:49:35;6.47;;;3.45;;
26516;SDS011;14190;51.342;6.338;2023-02-28T14:52:23;5.75;;;4.12;;
26516;SDS011;14190;51.342;6.338;2023-02-28T14:55:03;4.47;;;3.22;;
26516;SDS011;14190;51.342;6.338;2023-02-28T14:57:34;8.65;;;4.05;;
26516;SDS011;14190;51.342;6.338;2023-02-28T15:02:40;7.60;;;3.37;;
26516;SDS011;14190;51.342;6.338;2023-02-28T15:07:43;6.40;;;3.83;;
26516;SDS011;14190;51.342;6.338;2023-02-28T15:10:13;5.33;;;3.95;;
26516;SDS011;14190;51.342;6.338;2023-02-28T15:12:39;5.12;;;3.35;;
26516;SDS011;14190;51.342;6.338;2023-02-28T15:15:15;6.97;;;4.30;;
26516;SDS011;14190;51.342;6.338;2023-02-28T15:17:44;9.60;;;3.87;;
26516;SDS011;14190;51.342;6.338;2023-02-28T15:20:12;9.40;;;4.12;;
26516;SDS011;14190;51.342;6.338;2023-02-28T15:22:40;7.30;;;4.08;;
26516;SDS011;14190;51.342;6.338;2023-02-28T15:25:09;5.25;;;3.75;;
26516;SDS011;14190;51.342;6.338;2023-02-28T15:27:39;8.88;;;4.12;;
26516;SDS011;14190;51.342;6.338;2023-02-28T15:30:07;7.22;;;3.83;;
26516;SDS011;14190;51.342;6.338;2023-02-28T15:32:35;5.83;;;3.45;;
26516;SDS011;14190;51.342;6.338;2023-02-28T15:37:53;12.10;;;3.95;;
26516;SDS011;14190;51.342;6.338;2023-02-28T15:40:26;7.12;;;3.83;;
26516;SDS011;14190;51.342;6.338;2023-02-28T15:42:59;6.33;;;3.70;;
26516;SDS011;14190;51.342;6.338;2023-02-28T15:45:29;7.37;;;4.20;;
26516;SDS011;14190;51.342;6.338;2023-02-28T15:47:56;5.53;;;3.62;;
26516;SDS011;14190;51.342;6.338;2023-02-28T15:50:24;6.50;;;4.00;;
26516;SDS011;14190;51.342;6.338;2023-02-28T15:52:53;7.17;;;3.75;;
26516;SDS011;14190;51.342;6.338;2023-02-28T15:55:21;5.80;;;3.60;;
26516;SDS011;14190;51.342;6.338;2023-02-28T15:57:51;8.48;;;3.85;;
26516;SDS011;14190;51.342;6.338;2023-02-28T16:00:20;6.87;;;3.60;;
26516;SDS011;14190;51.342;6.338;2023-02-28T16:02:49;6.78;;;3.92;;
26516;SDS011;14190;51.342;6.338;2023-02-28T16:05:25;7.00;;;3.72;;
26516;SDS011;14190;51.342;6.338;2023-02-28T16:07:51;6.25;;;3.98;;
26516;SDS011;14190;51.342;6.338;2023-02-28T16:10:18;6.92;;;3.67;;
26516;SDS011;14190;51.342;6.338;2023-02-28T16:12:45;8.08;;;4.47;;
26516;SDS011;14190;51.342;6.338;2023-02-28T16:17:47;10.43;;;4.28;;
26516;SDS011;14190;51.342;6.338;2023-02-28T16:20:26;5.92;;;3.85;;
26516;SDS011;14190;51.342;6.338;2023-02-28T16:22:44;9.13;;;4.08;;
26516;SDS011;14190;51.342;6.338;2023-02-28T16:25:18;7.35;;;3.60;;
26516;SDS011;14190;51.342;6.338;2023-02-28T16:27:41;4.03;;;3.30;;
26516;SDS011;14190;51.342;6.338;2023-02-28T16:30:14;7.03;;;4.08;;
26516;SDS011;14190;51.342;6.338;2023-02-28T16:32:38;6.75;;;3.62;;
26516;SDS011;14190;51.342;6.338;2023-02-28T16:35:06;6.72;;;3.92;;
26516;SDS011;14190;51.342;6.338;2023-02-28T16:37:34;7.80;;;3.62;;
26516;SDS011;14190;51.342;6.338;2023-02-28T16:40:02;5.80;;;3.77;;
26516;SDS011;14190;51.342;6.338;2023-02-28T16:42:29;14.40;;;3.80;;
26516;SDS011;14190;51.342;6.338;2023-02-28T16:44:58;7.67;;;4.10;;
26516;SDS011;14190;51.342;6.338;2023-02-28T16:47:25;5.72;;;3.70;;
26516;SDS011;14190;51.342;6.338;2023-02-28T16:49:53;6.40;;;4.30;;
26516;SDS011;14190;51.342;6.338;2023-02-28T16:52:22;6.17;;;4.85;;
26516;SDS011;14190;51.342;6.338;2023-02-28T16:54:54;9.60;;;4.92;;